sensor_id;sensor_type;location;lat;lon;timestamp;pressure;altitude;pressure_sealevel;temperature;humidity
46876;BME280;32866;50.160;14.768;2023-01-10T00:01:16;98612.09;;;2.54;100.00
46876;BME280;32866;50.160;14.768;2023-01-10T00:03:41;98613.72;;;2.45;100.00
46876;BME280;32866;50.160;14.768;2023-01-10T00:06:07;98619.47;;;2.50;100.00
46876;BME280;32866;50.160;14.768;2023-01-10T00:08:32;98613.75;;;2.41;100.00
46876;BME280;32866;50.160;14.768;2023-01-10T00:10:57;98578.41;;;2.21;100.00
46876;BME280;32866;50.160;14.768;2023-01-10T00:13:43;98604.25;;;2.26;100.00
46876;BME280;32866;50.160;14.768;2023-01-10T00:16:08;98588.72;;;1.92;100.00
46876;BME280;32866;50.160;14.768;2023-01-10T00:18:34;98587.25;;;1.80;100.00
46876;BME280;32866;50.160;14.768;2023-01-10T00:20:59;98601.03;;;1.93;100.00
46876;BME280;32866;50.160;14.768;2023-01-10T00:23:24;98596.91;;;1.77;100.00
46876;BME280;32866;50.160;14.768;2023-01-10T00:25:50;98625.88;;;1.77;100.00
46876;BME280;32866;50.160;14.768;2023-01-10T00:28:15;98629.41;;;1.70;100.00
46876;BME280;32866;50.160;14.768;2023-01-10T00:30:46;98635.97;;;1.65;100.00
46876;BME280;32866;50.160;14.768;2023-01-10T00:33:12;98637.59;;;1.52;100.00
46876;BME280;32866;50.160;14.768;2023-01-10T00:35:43;98640.78;;;1.36;100.00
46876;BME280;32866;50.160;14.768;2023-01-10T00:38:09;98622.44;;;1.02;100.00
46876;BME280;32866;50.160;14.768;2023-01-10T00:40:34;98632.47;;;0.95;100.00
46876;BME280;32866;50.160;14.768;2023-01-10T00:43:00;98659.34;;;1.20;100.00
46876;BME280;32866;50.160;14.768;2023-01-10T00:45:45;98640.13;;;1.03;100.00
46876;BME280;32866;50.160;14.768;2023-01-10T00:48:12;98636.22;;;1.26;100.00
46876;BME280;32866;50.160;14.768;2023-01-10T00:50:37;98656.88;;;1.51;100.00
46876;BME280;32866;50.160;14.768;2023-01-10T00:53:03;98654.44;;;1.74;100.00
46876;BME280;32866;50.160;14.768;2023-01-10T00:55:28;98640.63;;;1.65;100.00
46876;BME280;32866;50.160;14.768;2023-01-10T00:57:54;98670.72;;;1.63;100.00
46876;BME280;32866;50.160;14.768;2023-01-10T01:00:19;98664.94;;;1.65;100.00
46876;BME280;32866;50.160;14.768;2023-01-10T01:02:45;98646.13;;;1.43;100.00
46876;BME280;32866;50.160;14.768;2023-01-10T01:05:10;98676.84;;;1.67;100.00
46876;BME280;32866;50.160;14.768;2023-01-10T01:07:35;98693.00;;;1.82;100.00
46876;BME280;32866;50.160;14.768;2023-01-10T01:10:01;98666.44;;;1.70;100.00
46876;BME280;32866;50.160;14.768;2023-01-10T01:12:45;98699.13;;;1.90;100.00
46876;BME280;32866;50.160;14.768;2023-01-10T01:15:10;98707.31;;;1.75;100.00
46876;BME280;32866;50.160;14.768;2023-01-10T01:17:36;98702.03;;;1.50;100.00
46876;BME280;32866;50.160;14.768;2023-01-10T01:20:02;98727.06;;;1.65;100.00
46876;BME280;32866;50.160;14.768;2023-01-10T01:22:28;98685.50;;;1.41;100.00
46876;BME280;32866;50.160;14.768;2023-01-10T01:24:53;98694.69;;;1.51;100.00
46876;BME280;32866;50.160;14.768;2023-01-10T01:27:19;98705.28;;;1.94;100.00
46876;BME280;32866;50.160;14.768;2023-01-10T01:29:45;98722.16;;;2.12;100.00
46876;BME280;32866;50.160;14.768;2023-01-10T01:32:10;98730.00;;;1.89;100.00
46876;BME280;32866;50.160;14.768;2023-01-10T01:34:36;98743.13;;;1.90;100.00
46876;BME280;32866;50.160;14.768;2023-01-10T01:37:01;98718.94;;;1.69;100.00
46876;BME280;32866;50.160;14.768;2023-01-10T01:39:27;98727.78;;;1.76;100.00
46876;BME280;32866;50.160;14.768;2023-01-10T01:41:52;98750.47;;;1.93;100.00
46876;BME280;32866;50.160;14.768;2023-01-10T01:44:29;98756.56;;;2.08;100.00
46876;BME280;32866;50.160;14.768;2023-01-10T01:47:02;98736.19;;;1.85;100.00
46876;BME280;32866;50.160;14.768;2023-01-10T01:49:31;98759.19;;;2.15;100.00
46876;BME280;32866;50.160;14.768;2023-01-10T01:52:01;98756.56;;;2.08;100.00
46876;BME280;32866;50.160;14.768;2023-01-10T01:54:30;98759.94;;;2.23;100.00
46876;BME280;32866;50.160;14.768;2023-01-10T01:57:01;98767.66;;;2.25;100.00
46876;BME280;32866;50.160;14.768;2023-01-10T01:59:37;98762.94;;;2.32;100.00
46876;BME280;32866;50.160;14.768;2023-01-10T02:02:06;98762.91;;;2.36;100.00
46876;BME280;32866;50.160;14.768;2023-01-10T02:07:52;98778.56;;;2.07;100.00
46876;BME280;32866;50.160;14.768;2023-01-10T02:13:00;98793.94;;;2.17;100.00
46876;BME280;32866;50.160;14.768;2023-01-10T02:15:27;98760.13;;;1.87;100.00
46876;BME280;32866;50.160;14.768;2023-01-10T02:18:03;98770.97;;;1.83;100.00
46876;BME280;32866;50.160;14.768;2023-01-10T02:20:35;98793.63;;;2.11;100.00
46876;BME280;32866;50.160;14.768;2023-01-10T02:39:03;98812.72;;;1.68;100.00
46876;BME280;32866;50.160;14.768;2023-01-10T02:41:50;98833.19;;;1.62;100.00
46876;BME280;32866;50.160;14.768;2023-01-10T02:44:26;98823.94;;;1.56;100.00
46876;BME280;32866;50.160;14.768;2023-01-10T02:46:55;98826.63;;;1.52;100.00
46876;BME280;32866;50.160;14.768;2023-01-10T02:49:20;98842.06;;;1.52;100.00
46876;BME280;32866;50.160;14.768;2023-01-10T02:51:45;98838.59;;;1.58;100.00
46876;BME280;32866;50.160;14.768;2023-01-10T02:54:16;98832.09;;;1.38;100.00
46876;BME280;32866;50.160;14.768;2023-01-10T03:10:12;98867.50;;;1.65;100.00
46876;BME280;32866;50.160;14.768;2023-01-10T03:12:46;98822.44;;;1.40;100.00
46876;BME280;32866;50.160;14.768;2023-01-10T03:15:17;98861.34;;;1.68;100.00
46876;BME280;32866;50.160;14.768;2023-01-10T03:17:46;98860.94;;;1.73;100.00
46876;BME280;32866;50.160;14.768;2023-01-10T03:20:16;98880.59;;;1.77;100.00
46876;BME280;32866;50.160;14.768;2023-01-10T03:22:45;98884.41;;;1.98;100.00
46876;BME280;32866;50.160;14.768;2023-01-10T03:25:13;98884.41;;;1.98;100.00
46876;BME280;32866;50.160;14.768;2023-01-10T03:27:46;98889.81;;;1.98;100.00
46876;BME280;32866;50.160;14.768;2023-01-10T03:32:47;98911.44;;;1.98;100.00
46876;BME280;32866;50.160;14.768;2023-01-10T03:35:13;98881.34;;;1.85;100.00
46876;BME280;32866;50.160;14.768;2023-01-10T03:40:30;98913.31;;;2.08;100.00
46876;BME280;32866;50.160;14.768;2023-01-10T03:43:15;98919.09;;;2.10;100.00
46876;BME280;32866;50.160;14.768;2023-01-10T03:46:05;98922.19;;;2.12;100.00
46876;BME280;32866;50.160;14.768;2023-01-10T03:48:35;98910.63;;;2.08;100.00
46876;BME280;32866;50.160;14.768;2023-01-10T03:51:03;98920.66;;;2.11;100.00
46876;BME280;32866;50.160;14.768;2023-01-10T03:53:31;98907.53;;;2.06;100.00
46876;BME280;32866;50.160;14.768;2023-01-10T03:55:57;98914.13;;;1.98;100.00
46876;BME280;32866;50.160;14.768;2023-01-10T03:58:23;98949.97;;;2.20;100.00
46876;BME280;32866;50.160;14.768;2023-01-10T04:00:49;98926.75;;;2.26;100.00
46876;BME280;32866;50.160;14.768;2023-01-10T04:03:14;98926.00;;;2.22;100.00
46876;BME280;32866;50.160;14.768;2023-01-10T04:05:41;98961.53;;;2.28;100.00
46876;BME280;32866;50.160;14.768;2023-01-10T04:08:06;98928.41;;;1.98;100.00
46876;BME280;32866;50.160;14.768;2023-01-10T04:10:31;98968.53;;;2.11;100.00
46876;BME280;32866;50.160;14.768;2023-01-10T04:13:00;98975.09;;;2.06;100.00
46876;BME280;32866;50.160;14.768;2023-01-10T04:15:27;98976.28;;;2.01;100.00
46876;BME280;32866;50.160;14.768;2023-01-10T04:17:52;98973.22;;;1.89;100.00
46876;BME280;32866;50.160;14.768;2023-01-10T04:20:18;98946.22;;;1.74;100.00
46876;BME280;32866;50.160;14.768;2023-01-10T04:22:46;98987.91;;;1.91;100.00
46876;BME280;32866;50.160;14.768;2023-01-10T04:25:14;98991.00;;;1.86;100.00
46876;BME280;32866;50.160;14.768;2023-01-10T04:27:39;98980.97;;;1.65;100.00
46876;BME280;32866;50.160;14.768;2023-01-10T04:30:05;99007.22;;;1.86;100.00
46876;BME280;32866;50.160;14.768;2023-01-10T04:32:31;99001.81;;;1.75;100.00
46876;BME280;32866;50.160;14.768;2023-01-10T04:34:56;98985.59;;;1.57;100.00
46876;BME280;32866;50.160;14.768;2023-01-10T04:37:22;99000.25;;;1.63;100.00
46876;BME280;32866;50.160;14.768;2023-01-10T04:39:47;99025.34;;;1.78;100.00
46876;BME280;32866;50.160;14.768;2023-01-10T04:42:12;99004.47;;;1.82;100.00
46876;BME280;32866;50.160;14.768;2023-01-10T04:44:38;99037.28;;;2.02;100.00
46876;BME280;32866;50.160;14.768;2023-01-10T04:47:03;99038.06;;;2.03;100.00
46876;BME280;32866;50.160;14.768;2023-01-10T04:49:29;99018.78;;;1.79;100.00
46876;BME280;32866;50.160;14.768;2023-01-10T04:51:55;99048.50;;;2.04;100.00
46876;BME280;32866;50.160;14.768;2023-01-10T04:54:21;99022.63;;;1.82;100.00
46876;BME280;32866;50.160;14.768;2023-01-10T04:56:47;99048.09;;;2.06;100.00
46876;BME280;32866;50.160;14.768;2023-01-10T04:59:12;99035.75;;;1.69;100.00
46876;BME280;32866;50.160;14.768;2023-01-10T05:01:37;99041.94;;;1.73;100.00
46876;BME280;32866;50.160;14.768;2023-01-10T05:06:38;99063.56;;;1.95;100.00
46876;BME280;32866;50.160;14.768;2023-01-10T05:09:08;99083.59;;;2.19;100.00
46876;BME280;32866;50.160;14.768;2023-01-10T05:11:34;99088.25;;;2.22;100.00
46876;BME280;32866;50.160;14.768;2023-01-10T05:13:59;99087.44;;;2.36;100.00
46876;BME280;32866;50.160;14.768;2023-01-10T05:16:25;99090.91;;;2.33;100.00
46876;BME280;32866;50.160;14.768;2023-01-10T05:18:50;99072.03;;;2.22;100.00
46876;BME280;32866;50.160;14.768;2023-01-10T05:21:16;99077.44;;;2.15;100.00
46876;BME280;32866;50.160;14.768;2023-01-10T05:23:42;99113.69;;;2.46;100.00
46876;BME280;32866;50.160;14.768;2023-01-10T05:26:09;99116.78;;;2.52;100.00
46876;BME280;32866;50.160;14.768;2023-01-10T05:28:36;99123.75;;;2.56;100.00
46876;BME280;32866;50.160;14.768;2023-01-10T05:31:01;99121.41;;;2.62;100.00
46876;BME280;32866;50.160;14.768;2023-01-10T05:33:27;99099.03;;;2.40;100.00
46876;BME280;32866;50.160;14.768;2023-01-10T05:35:52;99132.22;;;2.51;100.00
46876;BME280;32866;50.160;14.768;2023-01-10T05:38:18;99117.56;;;2.45;100.00
46876;BME280;32866;50.160;14.768;2023-01-10T05:40:43;99140.75;;;2.53;100.00
46876;BME280;32866;50.160;14.768;2023-01-10T05:43:08;99153.09;;;2.65;100.00
46876;BME280;32866;50.160;14.768;2023-01-10T05:45:36;99154.63;;;2.63;100.00
46876;BME280;32866;50.160;14.768;2023-01-10T05:48:02;99141.16;;;2.48;100.00
46876;BME280;32866;50.160;14.768;2023-01-10T05:50:27;99162.34;;;2.71;100.00
46876;BME280;32866;50.160;14.768;2023-01-10T05:52:52;99171.66;;;2.67;100.00
46876;BME280;32866;50.160;14.768;2023-01-10T05:55:18;99172.00;;;2.76;100.00
46876;BME280;32866;50.160;14.768;2023-01-10T05:57:43;99172.41;;;2.67;100.00
46876;BME280;32866;50.160;14.768;2023-01-10T06:00:09;99187.06;;;2.95;100.00
46876;BME280;32866;50.160;14.768;2023-01-10T06:02:35;99192.47;;;2.91;100.00
46876;BME280;32866;50.160;14.768;2023-01-10T06:05:00;99158.53;;;2.62;100.00
46876;BME280;32866;50.160;14.768;2023-01-10T06:07:25;99198.69;;;2.77;100.00
46876;BME280;32866;50.160;14.768;2023-01-10T06:09:51;99189.38;;;2.89;100.00
46876;BME280;32866;50.160;14.768;2023-01-10T06:12:17;99209.06;;;3.08;100.00
46876;BME280;32866;50.160;14.768;2023-01-10T06:14:45;99192.09;;;2.82;100.00
46876;BME280;32866;50.160;14.768;2023-01-10T06:17:14;99211.03;;;2.93;100.00
46876;BME280;32866;50.160;14.768;2023-01-10T06:19:39;99225.69;;;3.06;100.00
46876;BME280;32866;50.160;14.768;2023-01-10T06:22:04;99230.38;;;2.99;100.00
46876;BME280;32866;50.160;14.768;2023-01-10T06:24:30;99207.19;;;2.76;100.00
46876;BME280;32866;50.160;14.768;2023-01-10T06:26:55;99222.63;;;2.86;100.00
46876;BME280;32866;50.160;14.768;2023-01-10T06:29:20;99252.78;;;3.03;100.00
46876;BME280;32866;50.160;14.768;2023-01-10T06:31:46;99236.53;;;3.06;100.00
46876;BME280;32866;50.160;14.768;2023-01-10T06:34:11;99245.00;;;3.19;100.00
46876;BME280;32866;50.160;14.768;2023-01-10T06:36:37;99235.31;;;3.22;100.00
46876;BME280;32866;50.160;14.768;2023-01-10T06:39:02;99265.44;;;3.42;100.00
46876;BME280;32866;50.160;14.768;2023-01-10T06:41:28;99233.41;;;3.19;100.00
46876;BME280;32866;50.160;14.768;2023-01-10T06:43:53;99274.75;;;3.30;100.00
46876;BME280;32866;50.160;14.768;2023-01-10T06:46:19;99277.81;;;3.46;100.00
46876;BME280;32866;50.160;14.768;2023-01-10T06:48:45;99284.81;;;3.44;100.00
46876;BME280;32866;50.160;14.768;2023-01-10T06:51:15;99257.00;;;3.11;100.00
46876;BME280;32866;50.160;14.768;2023-01-10T06:53:41;99291.75;;;3.41;100.00
46876;BME280;32866;50.160;14.768;2023-01-10T06:56:07;99302.25;;;3.32;100.00
46876;BME280;32866;50.160;14.768;2023-01-10T06:58:34;99302.25;;;3.36;100.00
46876;BME280;32866;50.160;14.768;2023-01-10T07:01:00;99309.16;;;3.51;100.00
46876;BME280;32866;50.160;14.768;2023-01-10T07:03:25;99320.00;;;3.51;100.00
46876;BME280;32866;50.160;14.768;2023-01-10T07:05:50;99313.81;;;3.47;100.00
46876;BME280;32866;50.160;14.768;2023-01-10T07:08:16;99318.03;;;3.62;100.00
46876;BME280;32866;50.160;14.768;2023-01-10T07:10:42;99319.19;;;3.61;100.00
46876;BME280;32866;50.160;14.768;2023-01-10T07:13:08;99320.75;;;3.62;100.00
46876;BME280;32866;50.160;14.768;2023-01-10T07:15:34;99331.16;;;3.75;100.00
46876;BME280;32866;50.160;14.768;2023-01-10T07:18:00;99340.09;;;3.61;100.00
46876;BME280;32866;50.160;14.768;2023-01-10T07:20:26;99346.69;;;3.56;100.00
46876;BME280;32866;50.160;14.768;2023-01-10T07:22:52;99357.16;;;3.54;100.00
46876;BME280;32866;50.160;14.768;2023-01-10T07:25:17;99347.13;;;3.44;100.00
46876;BME280;32866;50.160;14.768;2023-01-10T07:27:43;99361.78;;;3.57;100.00
46876;BME280;32866;50.160;14.768;2023-01-10T07:30:09;99326.22;;;3.37;100.00
46876;BME280;32866;50.160;14.768;2023-01-10T07:32:34;99361.75;;;3.71;100.00
46876;BME280;32866;50.160;14.768;2023-01-10T07:34:59;99356.78;;;3.45;100.00
46876;BME280;32866;50.160;14.768;2023-01-10T07:37:25;99345.19;;;3.26;100.00
46876;BME280;32866;50.160;14.768;2023-01-10T07:39:50;99382.34;;;3.44;100.00
46876;BME280;32866;50.160;14.768;2023-01-10T07:42:16;99388.53;;;3.41;100.00
46876;BME280;32866;50.160;14.768;2023-01-10T07:44:41;99374.97;;;3.41;100.00
46876;BME280;32866;50.160;14.768;2023-01-10T07:47:07;99364.56;;;3.07;100.00
46876;BME280;32866;50.160;14.768;2023-01-10T07:49:32;99398.22;;;3.31;100.00
46876;BME280;32866;50.160;14.768;2023-01-10T07:51:57;99385.81;;;3.44;100.00
46876;BME280;32866;50.160;14.768;2023-01-10T07:54:23;99398.19;;;3.56;100.00
46876;BME280;32866;50.160;14.768;2023-01-10T07:56:48;99402.03;;;3.55;100.00
46876;BME280;32866;50.160;14.768;2023-01-10T07:59:14;99402.03;;;3.62;100.00
46876;BME280;32866;50.160;14.768;2023-01-10T08:01:40;99387.34;;;3.52;100.00
46876;BME280;32866;50.160;14.768;2023-01-10T08:04:05;99411.31;;;3.68;100.00
46876;BME280;32866;50.160;14.768;2023-01-10T08:06:30;99410.47;;;3.93;100.00
46876;BME280;32866;50.160;14.768;2023-01-10T08:08:56;99407.41;;;3.87;100.00
46876;BME280;32866;50.160;14.768;2023-01-10T08:11:21;99400.81;;;3.88;100.00
46876;BME280;32866;50.160;14.768;2023-01-10T08:13:47;99387.69;;;3.72;100.00
46876;BME280;32866;50.160;14.768;2023-01-10T08:16:12;99388.09;;;3.71;100.00
46876;BME280;32866;50.160;14.768;2023-01-10T08:18:39;99412.03;;;3.98;100.00
46876;BME280;32866;50.160;14.768;2023-01-10T08:21:07;99414.72;;;4.05;100.00
46876;BME280;32866;50.160;14.768;2023-01-10T08:23:33;99415.03;;;4.25;100.00
46876;BME280;32866;50.160;14.768;2023-01-10T08:25:59;99412.69;;;4.27;100.00
46876;BME280;32866;50.160;14.768;2023-01-10T08:28:24;99393.34;;;4.21;100.00
46876;BME280;32866;50.160;14.768;2023-01-10T08:30:50;99415.47;;;4.09;100.00
46876;BME280;32866;50.160;14.768;2023-01-10T08:36:41;99433.97;;;4.39;100.00
46876;BME280;32866;50.160;14.768;2023-01-10T08:39:06;99439.75;;;4.41;100.00
46876;BME280;32866;50.160;14.768;2023-01-10T08:41:32;99449.06;;;4.37;100.00
46876;BME280;32866;50.160;14.768;2023-01-10T08:43:57;99454.50;;;4.37;100.00
46876;BME280;32866;50.160;14.768;2023-01-10T08:46:23;99432.81;;;4.33;100.00
46876;BME280;32866;50.160;14.768;2023-01-10T08:48:48;99460.69;;;4.44;100.00
46876;BME280;32866;50.160;14.768;2023-01-10T08:51:15;99464.50;;;4.58;100.00
46876;BME280;32866;50.160;14.768;2023-01-10T08:53:40;99469.44;;;4.77;100.00
46876;BME280;32866;50.160;14.768;2023-01-10T08:56:06;99460.69;;;4.37;100.00
46876;BME280;32866;50.160;14.768;2023-01-10T08:58:32;99448.97;;;4.62;100.00
46876;BME280;32866;50.160;14.768;2023-01-10T09:00:57;99462.16;;;4.60;100.00
46876;BME280;32866;50.160;14.768;2023-01-10T09:03:22;99459.72;;;4.83;100.00
46876;BME280;32866;50.160;14.768;2023-01-10T09:05:48;99458.19;;;4.75;100.00
46876;BME280;32866;50.160;14.768;2023-01-10T09:08:13;99492.56;;;5.04;100.00
46876;BME280;32866;50.160;14.768;2023-01-10T09:10:39;99506.34;;;5.38;100.00
46876;BME280;32866;50.160;14.768;2023-01-10T09:13:04;99510.91;;;5.48;100.00
46876;BME280;32866;50.160;14.768;2023-01-10T09:15:34;99516.91;;;5.74;100.00
46876;BME280;32866;50.160;14.768;2023-01-10T09:18:03;99532.28;;;5.99;100.00
46876;BME280;32866;50.160;14.768;2023-01-10T09:20:34;99505.81;;;5.54;100.00
46876;BME280;32866;50.160;14.768;2023-01-10T09:23:06;99530.88;;;5.76;100.00
46876;BME280;32866;50.160;14.768;2023-01-10T09:25:33;99504.72;;;5.44;100.00
46876;BME280;32866;50.160;14.768;2023-01-10T09:27:59;99539.91;;;5.66;100.00
46876;BME280;32866;50.160;14.768;2023-01-10T09:30:26;99541.03;;;5.72;100.00
46876;BME280;32866;50.160;14.768;2023-01-10T09:32:53;99544.50;;;5.72;100.00
46876;BME280;32866;50.160;14.768;2023-01-10T09:35:19;99555.72;;;5.82;100.00
46876;BME280;32866;50.160;14.768;2023-01-10T09:37:44;99559.19;;;5.82;100.00
46876;BME280;32866;50.160;14.768;2023-01-10T09:45:58;99564.44;;;6.49;100.00
46876;BME280;32866;50.160;14.768;2023-01-10T09:51:23;99573.22;;;7.25;100.00
46876;BME280;32866;50.160;14.768;2023-01-10T09:53:54;99572.25;;;7.39;100.00
46876;BME280;32866;50.160;14.768;2023-01-10T09:56:21;99548.38;;;7.20;100.00
46876;BME280;32866;50.160;14.768;2023-01-10T09:58:47;99569.09;;;6.83;100.00
46876;BME280;32866;50.160;14.768;2023-01-10T10:01:21;99556.91;;;6.60;100.00
46876;BME280;32866;50.160;14.768;2023-01-10T10:03:59;99565.63;;;6.44;100.00
46876;BME280;32866;50.160;14.768;2023-01-10T10:06:27;99562.28;;;6.67;100.00
46876;BME280;32866;50.160;14.768;2023-01-10T10:08:52;99541.22;;;6.72;100.00
46876;BME280;32866;50.160;14.768;2023-01-10T10:19:27;99554.28;;;7.42;100.00
46876;BME280;32866;50.160;14.768;2023-01-10T10:27:22;99569.59;;;8.10;100.00
46876;BME280;32866;50.160;14.768;2023-01-10T10:33:05;99580.25;;;8.48;100.00
46876;BME280;32866;50.160;14.768;2023-01-10T10:35:37;99582.28;;;7.97;100.00
46876;BME280;32866;50.160;14.768;2023-01-10T10:38:18;99570.81;;;7.31;100.00
46876;BME280;32866;50.160;14.768;2023-01-10T10:40:47;99565.13;;;7.18;100.00
46876;BME280;32866;50.160;14.768;2023-01-10T10:43:22;99557.47;;;7.10;100.00
46876;BME280;32866;50.160;14.768;2023-01-10T10:45:58;99589.78;;;7.38;100.00
46876;BME280;32866;50.160;14.768;2023-01-10T10:48:49;99565.34;;;7.31;100.00
46876;BME280;32866;50.160;14.768;2023-01-10T10:51:43;99605.16;;;7.25;100.00
46876;BME280;32866;50.160;14.768;2023-01-10T10:54:10;99577.28;;;7.68;100.00
46876;BME280;32866;50.160;14.768;2023-01-10T10:56:37;99605.84;;;8.78;100.00
46876;BME280;32866;50.160;14.768;2023-01-10T11:01:32;99586.25;;;7.41;100.00
46876;BME280;32866;50.160;14.768;2023-01-10T11:03:58;99615.25;;;7.28;100.00
46876;BME280;32866;50.160;14.768;2023-01-10T11:06:26;99610.56;;;7.29;100.00
46876;BME280;32866;50.160;14.768;2023-01-10T11:08:56;99622.00;;;7.16;100.00
46876;BME280;32866;50.160;14.768;2023-01-10T11:11:28;99608.69;;;6.91;100.00
46876;BME280;32866;50.160;14.768;2023-01-10T11:13:58;99603.25;;;6.91;100.00
46876;BME280;32866;50.160;14.768;2023-01-10T11:16:29;99616.16;;;7.18;100.00
46876;BME280;32866;50.160;14.768;2023-01-10T11:21:55;99597.41;;;8.49;100.00
46876;BME280;32866;50.160;14.768;2023-01-10T11:24:37;99625.00;;;8.07;100.00
46876;BME280;32866;50.160;14.768;2023-01-10T11:27:17;99625.63;;;7.68;100.00
46876;BME280;32866;50.160;14.768;2023-01-10T11:29:50;99627.38;;;7.54;100.00
46876;BME280;32866;50.160;14.768;2023-01-10T11:35:20;99602.28;;;6.74;100.00
46876;BME280;32866;50.160;14.768;2023-01-10T11:38:19;99623.66;;;6.76;100.00
46876;BME280;32866;50.160;14.768;2023-01-10T11:40:54;99633.84;;;6.68;100.00
46876;BME280;32866;50.160;14.768;2023-01-10T11:43:26;99634.28;;;6.63;100.00
46876;BME280;32866;50.160;14.768;2023-01-10T11:45:58;99634.41;;;6.52;100.00
46876;BME280;32866;50.160;14.768;2023-01-10T11:48:30;99632.91;;;6.47;100.00
46876;BME280;32866;50.160;14.768;2023-01-10T11:50:58;99612.50;;;6.21;100.00
46876;BME280;32866;50.160;14.768;2023-01-10T11:55:57;99638.56;;;6.22;100.00
46876;BME280;32866;50.160;14.768;2023-01-10T11:58:29;99643.72;;;6.09;100.00
46876;BME280;32866;50.160;14.768;2023-01-10T12:00:56;99635.28;;;5.97;100.00
46876;BME280;32866;50.160;14.768;2023-01-10T12:03:47;99643.06;;;5.87;100.00
46876;BME280;32866;50.160;14.768;2023-01-10T12:06:14;99636.03;;;5.93;100.00
46876;BME280;32866;50.160;14.768;2023-01-10T12:08:41;99648.81;;;6.04;100.00
46876;BME280;32866;50.160;14.768;2023-01-10T12:11:22;99648.13;;;5.89;100.00
46876;BME280;32866;50.160;14.768;2023-01-10T12:13:52;99660.56;;;5.90;100.00
46876;BME280;32866;50.160;14.768;2023-01-10T12:18:47;99657.41;;;5.91;100.00
46876;BME280;32866;50.160;14.768;2023-01-10T12:21:14;99646.84;;;6.08;100.00
46876;BME280;32866;50.160;14.768;2023-01-10T12:23:42;99655.41;;;6.06;100.00
46876;BME280;32866;50.160;14.768;2023-01-10T12:26:11;99648.41;;;6.05;100.00
46876;BME280;32866;50.160;14.768;2023-01-10T12:28:51;99662.28;;;6.18;100.00
46876;BME280;32866;50.160;14.768;2023-01-10T12:31:20;99654.09;;;6.25;100.00
46876;BME280;32866;50.160;14.768;2023-01-10T12:33:52;99674.97;;;6.39;100.00
46876;BME280;32866;50.160;14.768;2023-01-10T12:36:27;99665.22;;;6.42;100.00
46876;BME280;32866;50.160;14.768;2023-01-10T12:39:23;99661.09;;;6.68;100.00
46876;BME280;32866;50.160;14.768;2023-01-10T12:44:52;99671.25;;;6.64;100.00
46876;BME280;32866;50.160;14.768;2023-01-10T12:50:29;99679.88;;;6.55;100.00
46876;BME280;32866;50.160;14.768;2023-01-10T12:53:23;99682.97;;;6.57;100.00
46876;BME280;32866;50.160;14.768;2023-01-10T12:55:52;99689.34;;;6.40;100.00
46876;BME280;32866;50.160;14.768;2023-01-10T12:59:13;99692.91;;;6.33;100.00
46876;BME280;32866;50.160;14.768;2023-01-10T13:01:32;99698.63;;;6.46;100.00
46876;BME280;32866;50.160;14.768;2023-01-10T13:04:11;99702.50;;;6.48;100.00
46876;BME280;32866;50.160;14.768;2023-01-10T13:06:40;99708.75;;;6.42;100.00
46876;BME280;32866;50.160;14.768;2023-01-10T13:11:45;99685.75;;;6.01;100.00
46876;BME280;32866;50.160;14.768;2023-01-10T13:14:16;99719.84;;;6.17;100.00
46876;BME280;32866;50.160;14.768;2023-01-10T13:16:54;99711.34;;;6.11;100.00
46876;BME280;32866;50.160;14.768;2023-01-10T13:19:26;99725.78;;;6.01;100.00
46876;BME280;32866;50.160;14.768;2023-01-10T13:22:19;99716.09;;;5.96;100.00
46876;BME280;32866;50.160;14.768;2023-01-10T13:24:58;99718.56;;;5.69;100.00
46876;BME280;32866;50.160;14.768;2023-01-10T13:27:32;99691.53;;;5.36;100.00
46876;BME280;32866;50.160;14.768;2023-01-10T13:29:59;99736.50;;;5.52;100.00
46876;BME280;32866;50.160;14.768;2023-01-10T13:32:28;99740.75;;;5.56;100.00
46876;BME280;32866;50.160;14.768;2023-01-10T13:37:36;99747.00;;;5.53;100.00
46876;BME280;32866;50.160;14.768;2023-01-10T13:40:03;99721.81;;;5.28;100.00
46876;BME280;32866;50.160;14.768;2023-01-10T13:42:34;99749.72;;;5.50;100.00
46876;BME280;32866;50.160;14.768;2023-01-10T13:45:20;99760.63;;;5.39;100.00
46876;BME280;32866;50.160;14.768;2023-01-10T13:55:49;99769.06;;;5.66;100.00
46876;BME280;32866;50.160;14.768;2023-01-10T14:01:22;99773.75;;;5.62;100.00
46876;BME280;32866;50.160;14.768;2023-01-10T14:04:06;99767.53;;;5.62;100.00
46876;BME280;32866;50.160;14.768;2023-01-10T14:06:41;99757.44;;;5.58;100.00
46876;BME280;32866;50.160;14.768;2023-01-10T14:14:28;99751.59;;;5.64;100.00
46876;BME280;32866;50.160;14.768;2023-01-10T14:17:11;99779.13;;;5.73;100.00
46876;BME280;32866;50.160;14.768;2023-01-10T14:19:37;99777.19;;;5.73;100.00
46876;BME280;32866;50.160;14.768;2023-01-10T14:22:03;99780.72;;;5.70;100.00
46876;BME280;32866;50.160;14.768;2023-01-10T14:24:31;99789.19;;;5.80;100.00
46876;BME280;32866;50.160;14.768;2023-01-10T14:27:00;99791.94;;;5.83;100.00
46876;BME280;32866;50.160;14.768;2023-01-10T14:29:26;99792.31;;;5.78;100.00
46876;BME280;32866;50.160;14.768;2023-01-10T14:31:55;99794.69;;;5.72;100.00
46876;BME280;32866;50.160;14.768;2023-01-10T14:34:26;99812.56;;;5.70;100.00
46876;BME280;32866;50.160;14.768;2023-01-10T14:37:25;99815.28;;;5.63;100.00
46876;BME280;32866;50.160;14.768;2023-01-10T14:39:52;99819.94;;;5.66;100.00
46876;BME280;32866;50.160;14.768;2023-01-10T14:42:21;99811.03;;;5.62;100.00
46876;BME280;32866;50.160;14.768;2023-01-10T14:44:56;99815.72;;;5.50;100.00
46876;BME280;32866;50.160;14.768;2023-01-10T14:47:28;99814.16;;;5.49;100.00
46876;BME280;32866;50.160;14.768;2023-01-10T14:49:54;99816.47;;;5.54;100.00
46876;BME280;32866;50.160;14.768;2023-01-10T14:52:24;99820.38;;;5.46;100.00